Hauptseite
METAR-TAF:

METAR-TAF

Flughäfen :

Flughafen Chambéry-Savoie

Chambery / Aix-Les-Bains, Frankreich

Breite: 45-39N, Länge: 005-53E, Höhe: 235 m

Beobachtung

Neuester Wetterbericht von vor 17 Minuten, um 12:30 UTC
Wind 5 kt aus Nord/Nordwest, variierte zwischen West/Nordwest und Nord/Nordost
Temperatur 16°C
Luftfeuchtigkeit 55%
Luftdruck 1023 hPa
Sichtweite: 9000 m

METAR: LFLB 221230Z AUTO 34005KT 300V030 9000 NSC 16/07 Q1023 NOSIG

Zeit: 14:47 (12:47 UTC)

Prognose

Neuester Wetterbericht von vor 1 Stunde und 47 Minuten, um 11:00 UTC
Gültige Prognose vom 22 um 12 UTC bis 23 um 12 UTC
Wind 12 kt aus Nord
Sichtweite 10 km oder mehr
keine Wolken unter 1500 m und keine Kumulonimbus oder Gewitterwolken
Wahrscheinlichkeit 40% :
Zeitweise
vom 23 um 06 UTC bis 23 um 10 UTC
Durchbrochene Bewölkung in der Höhe von 1500 ft

TAF: LFLB 221100Z 2212/2312 36012KT CAVOK PROB40 TEMPO 2306/2310 BKN015

Wetterbeobachtungen und Prognosen von mehr als 4000 Flughäfen (METAR und TAF Bericht).

Die verfügbaren Stationen werden durch gelbe und rote Markierungen auf der Karte dargestellt.

Führen Sie die Maus auf sie, um den Namen der Station zu sehen.

Darauf klicken, um die Beobachtung von Wetterbeobachtungen und Prognosen zu sehen.

Um die Karte zu ändern : klicken Sie auf den grünen Tasten mit einem schwarzen Kreuz Zum Vergrößern, auf den grünen Button mit einem Gedankenstrich zu verkleinern, oder auf die grünen Pfeile für benachbarte Karten.


METAR-TAF: